Fairview Village, PA

8:14 AM EST on March 02, 2015 (GMT -0500)
Doylestown | Change Station
CLOSE
Current Station
Airport
Location: Doylestown,
Elevation: 394 ft
Nearby Weather Stations
Active Advisory: Special Statement Active Notice: Public Information Statement

Elev 394 ft 40.33 °N, 75.12 °W | Updated 20 minutes ago

Overcast
Overcast
32 °F
Feels Like 23 °F
N
12
Wind Variable Wind from WNW
Gusts 16 mph

Today
High -- | Low -- °F
--% Chance of Precip.
Yesterday
High -- | Low -- °F
Precip. -- in
6:33 AM 5:54 PM
Waxing Gibbous, 91% visible
Pressure 30.13 in
Visibility 10.0 miles
Clouds Overcast 3500 ft
Windchill 23 °F
Dew Point 30 °F
Humidity 92%
Rainfall 0.00 in
Snow Depth Not available.
UV 0 out of 12
Pollen .60 out of 12
Air Quality Not available.
Flu Activity Not available.
METAR KDYL 021254Z AUTO 29010G14KT 10SM OVC035 00/M01 A3011 RMK AO2 SLP203 T00001011

More Conditions Fewer Conditions

Pressure 30.13 in
Visibility 10.0 miles
Clouds Overcast 3500 ft
Windchill 23 °F
Dew Point 30 °F
Humidity 92%
Rainfall 0.00 in
Snow Depth Not available.
UV 0 out of 12
Pollen .60 out of 12
Air Quality Not available.
Flu Activity Not available.
METAR KDYL 021254Z AUTO 29010G14KT 10SM OVC035 00/M01 A3011 RMK AO2 SLP203 T00001011

More Conditions Fewer Conditions

10-Day Weather Forecast

Almanac

Astronomy

Mar. 02, 2015 Rise Set
Actual Time
Civil Twilight
Nautical Twilight
Astronomical Twilight
Moon
Length of Visible Light
Length of Day
Tomorrow will be .
, % of the Moon is Illuminated

Today's Extremes

State Highs State Lows

Community

WunderPhotos

Upload Photos

1,801,781 photos uploaded!

WunderBlogs® & News

Nearby

Air Quality

  Air Quality AQ Index Pollutant
Not available.

Snow Depth

Station Depth Elevation

Earthquake Activity

City Distance Mag. Time & Date
Minimum magnitude displayed is 2.5.

Coastal Water Temperatures

Place Temperature

Nearby Weather Stations

Special Statement
Statement as of 4:22 AM EST on March 02, 2015

... Slippery conditions remain this morning...

Temperatures remain in the mid and upper 20s to around freezing
this morning across the area. Untreated roads, sidewalks, and
parking lots will likely remain icy through this morning.

Some patchy fog will also occur and will reduce visibilities in
some areas.

Be alert for changing roadway conditions and visibilities. If you
will be driving, reduce your speed and allow plenty of distance
between you and the vehicle ahead of you.


Robertson